createdAt,value
2023-04-28T00:00:51.458Z,524.00
2023-04-28T00:01:51.472Z,527.00
2023-04-28T00:02:51.595Z,529.00
2023-04-28T00:03:51.708Z,529.00
2023-04-28T00:04:52.059Z,527.00
2023-04-28T00:05:51.537Z,526.00
2023-04-28T00:06:51.520Z,524.00
2023-04-28T00:07:51.540Z,522.00
2023-04-28T00:08:51.567Z,522.00
2023-04-28T00:09:51.625Z,521.00
2023-04-28T00:10:51.645Z,522.00
2023-04-28T00:11:51.650Z,523.00
2023-04-28T00:12:51.688Z,523.00
2023-04-28T00:13:51.709Z,521.00
2023-04-28T00:14:51.770Z,523.00
2023-04-28T00:15:51.807Z,526.00
2023-04-28T00:16:51.922Z,524.00
2023-04-28T00:17:51.953Z,524.00
2023-04-28T00:18:51.880Z,526.00
2023-04-28T00:19:51.910Z,529.00
2023-04-28T00:20:51.941Z,532.00
2023-04-28T00:21:51.979Z,531.00
2023-04-28T00:22:52.002Z,531.00
2023-04-28T00:23:52.037Z,528.00
2023-04-28T00:24:52.071Z,528.00
2023-04-28T00:25:52.107Z,525.00
2023-04-28T00:26:52.175Z,525.00
2023-04-28T00:27:52.172Z,525.00
2023-04-28T00:28:52.207Z,525.00
2023-04-28T00:29:52.240Z,526.00
2023-04-28T00:30:52.279Z,527.00
2023-04-28T00:31:52.327Z,527.00
2023-04-28T00:32:52.361Z,525.00
2023-04-28T00:33:52.382Z,525.00
2023-04-28T00:34:52.422Z,527.00
2023-04-28T00:35:52.470Z,529.00
2023-04-28T00:36:52.506Z,529.00
2023-04-28T00:37:52.527Z,527.00
2023-04-28T00:38:52.564Z,527.00
2023-04-28T00:39:52.604Z,529.00
2023-04-28T00:40:52.643Z,528.00
2023-04-28T00:41:52.676Z,529.00
2023-04-28T00:42:52.746Z,530.00
2023-04-28T00:43:52.756Z,529.00
2023-04-28T00:44:52.793Z,530.00
2023-04-28T00:45:52.879Z,528.00
2023-04-28T00:46:52.865Z,528.00
2023-04-28T00:47:52.918Z,528.00
2023-04-28T00:48:52.945Z,528.00
2023-04-28T00:49:52.995Z,527.00
2023-04-28T00:50:53.031Z,526.00
2023-04-28T00:51:53.054Z,527.00
2023-04-28T00:52:53.102Z,528.00
2023-04-28T00:53:53.126Z,529.00
2023-04-28T00:54:53.183Z,529.00
2023-04-28T00:55:53.210Z,531.00
2023-04-28T00:56:53.248Z,531.00
2023-04-28T00:57:53.287Z,531.00
2023-04-28T00:58:53.354Z,532.00
2023-04-28T00:59:53.365Z,529.00
2023-04-28T01:00:53.446Z,528.00
2023-04-28T01:01:53.438Z,529.00
2023-04-28T01:02:53.703Z,531.00
2023-04-28T01:03:53.781Z,532.00
2023-04-28T01:04:53.550Z,531.00
2023-04-28T01:05:53.596Z,530.00
2023-04-28T01:06:53.635Z,529.00
2023-04-28T01:07:53.670Z,530.00
2023-04-28T01:08:53.698Z,527.00
2023-04-28T01:09:53.736Z,527.00
2023-04-28T01:10:53.777Z,526.00
2023-04-28T01:11:53.822Z,528.00
2023-04-28T01:12:53.849Z,526.00
2023-04-28T01:13:53.949Z,527.00
2023-04-28T01:14:53.960Z,529.00
2023-04-28T01:15:53.967Z,529.00
2023-04-28T01:16:54.170Z,528.00
2023-04-28T01:17:54.099Z,529.00
2023-04-28T01:18:54.103Z,532.00
2023-04-28T01:19:54.142Z,534.00
2023-04-28T01:20:54.191Z,536.00
2023-04-28T01:21:54.239Z,537.00
2023-04-28T01:22:55.271Z,537.00
2023-04-28T01:23:55.271Z,536.00
2023-04-28T01:24:54.350Z,536.00
2023-04-28T01:25:54.390Z,538.00
2023-04-28T01:26:54.435Z,539.00
2023-04-28T01:27:54.464Z,540.00
2023-04-28T01:28:54.505Z,537.00
2023-04-28T01:29:54.536Z,535.00
2023-04-28T01:30:54.607Z,536.00
2023-04-28T01:31:54.670Z,534.00
2023-04-28T01:32:54.767Z,533.00
2023-04-28T01:33:54.716Z,532.00
2023-04-28T01:34:54.782Z,532.00
2023-04-28T01:35:54.807Z,531.00
2023-04-28T01:36:54.858Z,531.00
2023-04-28T01:37:54.927Z,530.00
2023-04-28T01:38:54.923Z,530.00
2023-04-28T01:39:54.967Z,530.00
2023-04-28T01:40:55.006Z,531.00
2023-04-28T01:41:55.057Z,532.00
2023-04-28T01:42:55.082Z,533.00
2023-04-28T01:43:55.137Z,533.00
2023-04-28T01:44:55.168Z,533.00
2023-04-28T01:45:55.283Z,533.00
2023-04-28T01:46:55.285Z,532.00
2023-04-28T01:47:55.387Z,534.00
2023-04-28T01:48:55.343Z,536.00
2023-04-28T01:49:55.387Z,537.00
2023-04-28T01:50:55.483Z,537.00
2023-04-28T01:51:55.472Z,537.00
2023-04-28T01:52:55.527Z,536.00
2023-04-28T01:53:55.580Z,536.00
2023-04-28T01:54:55.602Z,533.00
2023-04-28T01:55:55.640Z,532.00
2023-04-28T01:56:55.694Z,532.00
2023-04-28T01:57:55.727Z,532.00
2023-04-28T01:58:55.773Z,531.00
2023-04-28T01:59:55.808Z,532.00
2023-04-28T02:00:55.855Z,532.00
2023-04-28T02:01:56.018Z,529.00
2023-04-28T02:02:56.035Z,530.00
2023-04-28T02:03:56.116Z,529.00
2023-04-28T02:04:56.113Z,528.00
2023-04-28T02:05:56.071Z,527.00
2023-04-28T02:06:56.114Z,528.00
2023-04-28T02:07:56.161Z,530.00
2023-04-28T02:08:56.199Z,530.00
2023-04-28T02:09:56.244Z,531.00
2023-04-28T02:10:56.285Z,531.00
2023-04-28T02:11:56.341Z,532.00
2023-04-28T02:12:56.387Z,533.00
2023-04-28T02:13:56.436Z,534.00
2023-04-28T02:14:56.474Z,536.00
2023-04-28T02:15:56.589Z,540.00
2023-04-28T02:16:56.563Z,540.00
2023-04-28T02:17:56.688Z,538.00
2023-04-28T02:18:56.670Z,540.00
2023-04-28T02:19:56.722Z,541.00
2023-04-28T02:20:56.741Z,539.00
2023-04-28T02:21:56.810Z,541.00
2023-04-28T02:22:56.826Z,542.00
2023-04-28T02:23:56.864Z,539.00
2023-04-28T02:24:56.902Z,536.00
2023-04-28T02:25:56.967Z,537.00
2023-04-28T02:26:56.996Z,538.00
2023-04-28T02:27:57.035Z,537.00
2023-04-28T02:28:57.075Z,538.00
2023-04-28T02:29:57.126Z,537.00
2023-04-28T02:30:57.171Z,534.00
2023-04-28T02:31:57.374Z,533.00
2023-04-28T02:32:57.285Z,533.00
2023-04-28T02:33:57.311Z,532.00
2023-04-28T02:34:57.411Z,529.00
2023-04-28T02:35:57.401Z,530.00
2023-04-28T02:36:57.450Z,531.00
2023-04-28T02:37:57.495Z,533.00
2023-04-28T02:38:57.535Z,534.00
2023-04-28T02:39:57.575Z,536.00
2023-04-28T02:40:57.619Z,538.00
2023-04-28T02:41:57.675Z,539.00
2023-04-28T02:42:57.715Z,539.00
2023-04-28T02:43:57.752Z,539.00
2023-04-28T02:44:57.812Z,540.00
2023-04-28T02:45:57.857Z,540.00
2023-04-28T02:46:57.988Z,540.00
2023-04-28T02:47:58.018Z,539.00
2023-04-28T02:48:58.008Z,539.00
2023-04-28T02:49:58.048Z,543.00
2023-04-28T02:50:58.198Z,545.00
2023-04-28T02:51:58.127Z,546.00
2023-04-28T02:52:58.173Z,547.00
2023-04-28T02:53:58.211Z,543.00
2023-04-28T02:54:58.262Z,541.00
2023-04-28T02:55:58.305Z,542.00
2023-04-28T02:56:58.364Z,542.00
2023-04-28T02:57:58.393Z,542.00
2023-04-28T02:58:58.437Z,543.00
2023-04-28T02:59:58.507Z,544.00
2023-04-28T03:00:58.608Z,544.00
2023-04-28T03:01:58.579Z,542.00
2023-04-28T03:02:58.920Z,542.00
2023-04-28T03:03:59.016Z,542.00
2023-04-28T03:04:58.805Z,539.00
2023-04-28T03:05:58.766Z,538.00
2023-04-28T03:06:58.837Z,539.00
2023-04-28T03:07:58.878Z,537.00
2023-04-28T03:08:58.935Z,537.00
2023-04-28T03:09:58.956Z,537.00
2023-04-28T03:10:59.022Z,537.00
2023-04-28T03:11:59.053Z,538.00
2023-04-28T03:12:59.100Z,538.00
2023-04-28T03:13:59.146Z,537.00
2023-04-28T03:14:59.210Z,538.00
2023-04-28T03:15:59.327Z,539.00
2023-04-28T03:16:59.293Z,540.00
2023-04-28T03:17:59.406Z,539.00
2023-04-28T03:18:59.395Z,538.00
2023-04-28T03:19:59.445Z,538.00
2023-04-28T03:20:59.515Z,538.00
2023-04-28T03:21:59.540Z,538.00
2023-04-28T03:22:59.611Z,535.00
2023-04-28T03:23:59.617Z,538.00
2023-04-28T03:24:59.657Z,537.00
2023-04-28T03:25:59.717Z,538.00
2023-04-28T03:26:59.748Z,536.00
2023-04-28T03:27:59.786Z,534.00
2023-04-28T03:28:59.814Z,533.00
2023-04-28T03:29:59.848Z,537.00
2023-04-28T03:30:59.898Z,538.00
2023-04-28T03:31:59.956Z,539.00
2023-04-28T03:33:00.004Z,539.00
2023-04-28T03:34:00.030Z,537.00
2023-04-28T03:35:00.037Z,537.00
2023-04-28T03:36:00.091Z,536.00
2023-04-28T03:37:00.152Z,536.00
2023-04-28T03:38:00.139Z,536.00
2023-04-28T03:39:00.255Z,536.00
2023-04-28T03:40:00.273Z,536.00
2023-04-28T03:41:00.214Z,537.00
2023-04-28T03:42:00.233Z,536.00
2023-04-28T03:43:01.250Z,535.00
2023-04-28T03:44:00.237Z,534.00
2023-04-28T03:45:00.252Z,533.00
2023-04-28T03:46:00.238Z,533.00
2023-04-28T03:47:00.196Z,535.00
2023-04-28T03:48:00.222Z,534.00
2023-04-28T03:49:00.154Z,533.00
2023-04-28T03:50:00.135Z,531.00
2023-04-28T03:51:00.104Z,533.00
2023-04-28T03:52:00.119Z,534.00
2023-04-28T03:53:00.090Z,533.00
2023-04-28T03:54:00.070Z,532.00
2023-04-28T03:55:00.097Z,531.00
2023-04-28T03:56:00.046Z,530.00
2023-04-28T03:57:00.042Z,530.00
2023-04-28T03:58:00.007Z,529.00
2023-04-28T03:58:59.994Z,530.00
2023-04-28T04:00:00.006Z,530.00
2023-04-28T04:00:59.964Z,530.00
2023-04-28T04:01:59.943Z,530.00
2023-04-28T04:03:00.044Z,530.00
2023-04-28T04:04:00.170Z,530.00
2023-04-28T04:05:01.123Z,532.00
2023-04-28T04:05:59.884Z,532.00
2023-04-28T04:06:59.865Z,532.00
2023-04-28T04:07:59.871Z,533.00
2023-04-28T04:08:59.871Z,537.00
2023-04-28T04:10:00.945Z,537.00
2023-04-28T04:10:59.885Z,536.00
2023-04-28T04:11:59.872Z,535.00
2023-04-28T04:12:59.824Z,536.00
2023-04-28T04:13:59.807Z,536.00
2023-04-28T04:14:59.789Z,536.00
2023-04-28T04:15:59.815Z,535.00
2023-04-28T04:16:59.759Z,533.00
2023-04-28T04:17:59.769Z,535.00
2023-04-28T04:18:59.725Z,533.00
2023-04-28T04:19:59.716Z,533.00
2023-04-28T04:20:59.697Z,531.00
2023-04-28T04:21:59.700Z,528.00
2023-04-28T04:22:59.659Z,527.00
2023-04-28T04:23:59.647Z,530.00
2023-04-28T04:24:59.629Z,530.00
2023-04-28T04:25:59.617Z,528.00
2023-04-28T04:26:59.630Z,527.00
2023-04-28T04:27:59.592Z,528.00
2023-04-28T04:28:59.587Z,527.00
2023-04-28T04:29:59.570Z,526.00
2023-04-28T04:30:59.615Z,528.00
2023-04-28T04:31:59.536Z,529.00
2023-04-28T04:32:59.596Z,530.00
2023-04-28T04:33:59.510Z,528.00
2023-04-28T04:34:59.491Z,526.00
2023-04-28T04:35:59.478Z,529.00
2023-04-28T04:36:59.465Z,531.00
2023-04-28T04:37:59.441Z,530.00
2023-04-28T04:38:59.432Z,528.00
2023-04-28T04:39:59.434Z,529.00
2023-04-28T04:40:59.408Z,530.00
2023-04-28T04:42:01.765Z,530.00
2023-04-28T04:42:59.394Z,530.00
2023-04-28T04:43:59.346Z,531.00
2023-04-28T04:44:59.325Z,531.00
2023-04-28T04:45:59.323Z,531.00
2023-04-28T04:46:59.307Z,528.00
2023-04-28T04:47:59.316Z,526.00
2023-04-28T04:48:59.255Z,526.00
2023-04-28T04:49:59.245Z,527.00
2023-04-28T04:50:59.237Z,529.00
2023-04-28T04:51:59.215Z,530.00
2023-04-28T04:52:59.200Z,532.00
2023-04-28T04:53:59.191Z,534.00
2023-04-28T04:54:59.172Z,533.00
2023-04-28T04:55:59.164Z,530.00
2023-04-28T04:56:59.133Z,529.00
2023-04-28T04:57:59.123Z,528.00
2023-04-28T04:58:59.138Z,529.00
2023-04-28T04:59:59.076Z,530.00
2023-04-28T05:00:59.055Z,529.00
2023-04-28T05:01:59.085Z,529.00
2023-04-28T05:02:59.173Z,530.00
2023-04-28T05:03:59.154Z,529.00
2023-04-28T05:05:07.995Z,528.00
2023-04-28T05:05:58.989Z,529.00
2023-04-28T05:06:58.959Z,529.00
2023-04-28T05:07:58.971Z,529.00
2023-04-28T05:08:58.943Z,526.00
2023-04-28T05:09:58.926Z,528.00
2023-04-28T05:10:58.906Z,529.00
2023-04-28T05:11:58.893Z,529.00
2023-04-28T05:12:58.874Z,528.00
2023-04-28T05:13:58.856Z,529.00
2023-04-28T05:14:58.861Z,530.00
2023-04-28T05:15:58.874Z,529.00
2023-04-28T05:16:58.836Z,530.00
2023-04-28T05:17:58.900Z,532.00
2023-04-28T05:18:58.762Z,534.00
2023-04-28T05:19:58.738Z,534.00
2023-04-28T05:20:58.726Z,538.00
2023-04-28T05:21:58.854Z,545.00
2023-04-28T05:22:58.699Z,549.00
2023-04-28T05:23:58.857Z,546.00
2023-04-28T05:24:58.678Z,545.00
2023-04-28T05:25:58.655Z,543.00
2023-04-28T05:26:58.644Z,542.00
2023-04-28T05:27:58.854Z,544.00
2023-04-28T05:28:58.857Z,548.00
2023-04-28T05:29:58.639Z,553.00
2023-04-28T05:30:58.644Z,556.00
2023-04-28T05:31:58.599Z,558.00
2023-04-28T05:32:58.529Z,559.00
2023-04-28T05:33:58.914Z,561.00
2023-04-28T05:34:58.465Z,564.00
2023-04-28T05:35:58.476Z,568.00
2023-04-28T05:36:58.415Z,570.00
2023-04-28T05:37:58.392Z,575.00
2023-04-28T05:38:59.029Z,581.00
2023-04-28T05:39:58.360Z,583.00
2023-04-28T05:40:58.344Z,581.00
2023-04-28T05:41:58.374Z,580.00
2023-04-28T05:42:58.373Z,582.00
2023-04-28T05:43:58.771Z,583.00
2023-04-28T05:44:58.390Z,620.00
2023-04-28T05:45:58.265Z,633.00
2023-04-28T05:46:58.457Z,632.00
2023-04-28T05:47:58.204Z,630.00
2023-04-28T05:48:58.182Z,627.00
2023-04-28T05:49:58.366Z,623.00
2023-04-28T05:50:59.350Z,635.00
2023-04-28T05:52:01.281Z,688.00
2023-04-28T05:52:58.021Z,702.00
2023-04-28T05:54:01.195Z,738.00
2023-04-28T05:54:58.492Z,780.00
2023-04-28T05:55:58.371Z,824.00
2023-04-28T05:56:59.509Z,826.00
2023-04-28T05:57:58.380Z,831.00
2023-04-28T05:58:59.406Z,842.00
2023-04-28T05:59:57.976Z,852.00
2023-04-28T06:01:05.422Z,854.00
2023-04-28T06:02:01.230Z,855.00
2023-04-28T06:02:59.070Z,980.00
2023-04-28T06:03:58.106Z,969.00
2023-04-28T06:04:58.537Z,951.00
2023-04-28T06:06:08.854Z,960.00
2023-04-28T06:06:57.872Z,964.00
2023-04-28T06:07:57.877Z,969.00
2023-04-28T06:08:57.794Z,971.00
2023-04-28T06:09:57.838Z,966.00
2023-04-28T06:10:57.742Z,968.00
2023-04-28T06:11:58.488Z,966.00
2023-04-28T06:12:57.860Z,966.00
2023-04-28T06:13:58.870Z,966.00
2023-04-28T06:14:59.514Z,964.00
2023-04-28T06:15:57.655Z,968.00
2023-04-28T06:16:58.871Z,969.00
2023-04-28T06:17:58.021Z,970.00
2023-04-28T06:18:56.513Z,970.00
2023-04-28T06:19:57.484Z,970.00
2023-04-28T06:20:59.406Z,967.00
2023-04-28T06:21:57.432Z,963.00
2023-04-28T06:22:59.373Z,968.00
2023-04-28T06:23:57.437Z,973.00
2023-04-28T06:24:57.547Z,978.00
2023-04-28T06:25:57.564Z,987.00
2023-04-28T06:26:57.876Z,993.00
2023-04-28T06:27:57.387Z,990.00
2023-04-28T06:28:57.235Z,984.00
2023-04-28T06:29:57.209Z,983.00
2023-04-28T06:30:57.519Z,986.00
2023-04-28T06:31:59.874Z,984.00
2023-04-28T06:32:57.197Z,988.00
2023-04-28T06:33:57.315Z,998.00
2023-04-28T06:34:58.500Z,996.00
2023-04-28T06:35:57.274Z,998.00
2023-04-28T06:36:57.279Z,997.00
2023-04-28T06:37:57.288Z,994.00
2023-04-28T06:38:57.480Z,995.00
2023-04-28T06:39:57.614Z,997.00
2023-04-28T06:40:57.937Z,1001.00
2023-04-28T06:42:00.458Z,1005.00
2023-04-28T06:42:57.349Z,1008.00
2023-04-28T06:43:58.781Z,1009.00
2023-04-28T06:45:04.817Z,1009.00
2023-04-28T06:45:57.345Z,1012.00
2023-04-28T06:46:57.446Z,1017.00
2023-04-28T06:47:57.478Z,1031.00
2023-04-28T06:48:57.264Z,1065.00
2023-04-28T06:49:57.247Z,1093.00
2023-04-28T06:50:57.181Z,1101.00
2023-04-28T06:51:57.184Z,1105.00
2023-04-28T06:52:57.379Z,1098.00
2023-04-28T06:53:57.113Z,1099.00
2023-04-28T06:54:57.114Z,1105.00
2023-04-28T06:55:57.131Z,1282.00
2023-04-28T06:56:57.163Z,1199.00
2023-04-28T06:57:57.382Z,1116.00
2023-04-28T06:58:57.582Z,1102.00
2023-04-28T06:59:57.161Z,1090.00
2023-04-28T07:00:57.262Z,1093.00
2023-04-28T07:01:57.713Z,1089.00
2023-04-28T07:02:57.460Z,1085.00
2023-04-28T07:03:57.402Z,1085.00
2023-04-28T07:04:57.217Z,1082.00
2023-04-28T07:05:57.254Z,1079.00
2023-04-28T07:06:57.255Z,1085.00
2023-04-28T07:07:57.249Z,1085.00
2023-04-28T07:08:57.251Z,1067.00
2023-04-28T07:09:57.266Z,1055.00
2023-04-28T07:10:57.397Z,1049.00
2023-04-28T07:11:57.394Z,1048.00
2023-04-28T07:12:57.387Z,1045.00
2023-04-28T07:13:57.302Z,1042.00
2023-04-28T07:14:57.302Z,1040.00
2023-04-28T07:15:57.345Z,1032.00
2023-04-28T07:16:57.300Z,1024.00
2023-04-28T07:17:57.436Z,1019.00
2023-04-28T07:18:57.326Z,1013.00
2023-04-28T07:19:57.337Z,1008.00
2023-04-28T07:20:57.341Z,1005.00
2023-04-28T07:21:57.371Z,1010.00
2023-04-28T07:22:57.411Z,1011.00
2023-04-28T07:23:57.400Z,1012.00
2023-04-28T07:24:57.404Z,1010.00
2023-04-28T07:25:57.377Z,1011.00
2023-04-28T07:26:57.403Z,1007.00
2023-04-28T07:27:57.398Z,1012.00
2023-04-28T07:28:57.409Z,1014.00
2023-04-28T07:29:57.358Z,1012.00
2023-04-28T07:30:57.362Z,1014.00
2023-04-28T07:31:57.424Z,1013.00
2023-04-28T07:32:57.476Z,1007.00
2023-04-28T07:33:57.358Z,1002.00
2023-04-28T07:34:57.382Z,1002.00
2023-04-28T07:35:57.402Z,1002.00
2023-04-28T07:36:57.349Z,998.00
2023-04-28T07:37:57.383Z,995.00
2023-04-28T07:38:57.352Z,991.00
2023-04-28T07:39:57.346Z,987.00
2023-04-28T07:40:57.432Z,985.00
2023-04-28T07:41:57.403Z,987.00
2023-04-28T07:42:57.438Z,984.00
2023-04-28T07:43:57.393Z,946.00
2023-04-28T07:44:57.365Z,921.00
2023-04-28T07:45:57.388Z,903.00
2023-04-28T07:46:57.388Z,816.00
2023-04-28T07:47:57.476Z,783.00
2023-04-28T07:48:57.415Z,785.00
2023-04-28T07:49:57.903Z,834.00
2023-04-28T07:50:57.398Z,805.00
2023-04-28T07:51:57.898Z,794.00
2023-04-28T07:52:58.686Z,792.00
2023-04-28T07:53:57.446Z,796.00
2023-04-28T07:54:57.430Z,778.00
2023-04-28T07:55:57.469Z,742.00
2023-04-28T07:56:57.901Z,740.00
2023-04-28T07:58:00.825Z,734.00
2023-04-28T07:58:57.476Z,742.00
2023-04-28T07:59:57.479Z,743.00
2023-04-28T08:00:57.431Z,739.00
2023-04-28T08:01:57.452Z,750.00
2023-04-28T08:02:57.569Z,765.00
2023-04-28T08:03:57.981Z,762.00
2023-04-28T08:04:57.615Z,742.00
2023-04-28T08:05:57.690Z,751.00
2023-04-28T08:06:57.219Z,744.00
2023-04-28T08:07:57.182Z,731.00
2023-04-28T08:08:57.528Z,738.00
2023-04-28T08:09:57.378Z,774.00
2023-04-28T08:10:57.116Z,761.00
2023-04-28T08:11:57.405Z,762.00
2023-04-28T08:12:57.054Z,750.00
2023-04-28T08:13:56.981Z,714.00
2023-04-28T08:14:56.949Z,712.00
2023-04-28T08:15:57.001Z,744.00
2023-04-28T08:16:56.976Z,737.00
2023-04-28T08:17:57.012Z,738.00
2023-04-28T08:18:57.069Z,740.00
2023-04-28T08:19:57.075Z,734.00
2023-04-28T08:20:57.107Z,731.00
2023-04-28T08:21:57.412Z,732.00
2023-04-28T08:22:57.596Z,739.00
2023-04-28T08:23:57.199Z,746.00
2023-04-28T08:24:57.274Z,752.00
2023-04-28T08:25:57.268Z,752.00
2023-04-28T08:26:57.413Z,760.00
2023-04-28T08:27:57.579Z,768.00
2023-04-28T08:28:57.356Z,767.00
2023-04-28T08:29:58.055Z,762.00
2023-04-28T08:30:57.952Z,775.00
2023-04-28T08:31:57.446Z,778.00
2023-04-28T08:32:57.928Z,774.00
2023-04-28T08:33:57.541Z,767.00
2023-04-28T08:34:57.929Z,742.00
2023-04-28T08:35:57.599Z,725.00
2023-04-28T08:36:57.621Z,722.00
2023-04-28T08:37:57.661Z,714.00
2023-04-28T08:38:57.706Z,705.00
2023-04-28T08:39:57.913Z,707.00
2023-04-28T08:40:57.758Z,657.00
2023-04-28T08:41:57.747Z,649.00
2023-04-28T08:42:57.958Z,650.00
2023-04-28T08:44:29.627Z,656.00
2023-04-28T08:44:57.723Z,750.00
2023-04-28T08:45:57.669Z,828.00
2023-04-28T08:46:57.706Z,817.00
2023-04-28T08:47:58.007Z,845.00
2023-04-28T08:48:57.594Z,893.00
2023-04-28T08:49:57.566Z,889.00
2023-04-28T08:50:57.533Z,880.00
2023-04-28T08:51:57.568Z,867.00
2023-04-28T08:52:57.965Z,853.00
2023-04-28T08:54:28.964Z,843.00
2023-04-28T08:54:57.560Z,831.00
2023-04-28T08:55:57.457Z,821.00
2023-04-28T08:56:57.414Z,814.00
2023-04-28T08:57:57.350Z,808.00
2023-04-28T08:58:57.339Z,799.00
2023-04-28T08:59:57.270Z,783.00
2023-04-28T09:00:57.239Z,769.00
2023-04-28T09:01:57.271Z,762.00
2023-04-28T09:02:57.659Z,749.00
2023-04-28T09:03:57.439Z,737.00
2023-04-28T09:04:57.757Z,729.00
2023-04-28T09:05:57.071Z,724.00
2023-04-28T09:06:57.058Z,716.00
2023-04-28T09:07:57.613Z,706.00
2023-04-28T09:08:57.201Z,700.00
2023-04-28T09:09:57.187Z,694.00
2023-04-28T09:10:57.049Z,688.00
2023-04-28T09:11:57.272Z,682.00
2023-04-28T09:12:57.156Z,679.00
2023-04-28T09:13:56.934Z,676.00
2023-04-28T09:14:57.305Z,669.00
2023-04-28T09:15:56.969Z,656.00
2023-04-28T09:16:57.095Z,654.00
2023-04-28T09:17:57.099Z,653.00
2023-04-28T09:18:57.742Z,651.00
2023-04-28T09:19:56.905Z,650.00
2023-04-28T09:20:56.987Z,644.00
2023-04-28T09:21:56.825Z,639.00
2023-04-28T09:22:57.032Z,639.00
2023-04-28T09:23:55.861Z,633.00
2023-04-28T09:24:56.956Z,630.00
2023-04-28T09:25:56.893Z,629.00
2023-04-28T09:26:56.734Z,626.00
2023-04-28T09:27:57.125Z,624.00
2023-04-28T09:28:56.641Z,620.00
2023-04-28T09:29:56.599Z,617.00
2023-04-28T09:30:56.422Z,614.00
2023-04-28T09:31:56.444Z,613.00
2023-04-28T09:32:56.497Z,613.00
2023-04-28T09:33:56.332Z,610.00
2023-04-28T09:34:56.315Z,607.00
2023-04-28T09:35:56.268Z,604.00
2023-04-28T09:36:56.264Z,602.00
2023-04-28T09:37:56.452Z,600.00
2023-04-28T09:38:56.999Z,598.00
2023-04-28T09:39:56.145Z,599.00
2023-04-28T09:40:56.137Z,608.00
2023-04-28T09:41:56.448Z,617.00
2023-04-28T09:42:56.039Z,625.00
2023-04-28T09:43:55.994Z,625.00
2023-04-28T09:44:56.062Z,621.00
2023-04-28T09:45:55.976Z,615.00
2023-04-28T09:47:03.339Z,606.00
2023-04-28T09:47:55.971Z,598.00
2023-04-28T09:48:55.849Z,590.00
2023-04-28T09:49:55.957Z,584.00
2023-04-28T09:50:55.787Z,579.00
2023-04-28T09:51:56.114Z,575.00
2023-04-28T09:52:56.072Z,572.00
2023-04-28T09:53:55.697Z,567.00
2023-04-28T09:54:55.660Z,565.00
2023-04-28T09:55:55.704Z,564.00
2023-04-28T09:56:55.666Z,563.00
2023-04-28T09:57:55.945Z,564.00
2023-04-28T09:58:55.965Z,562.00
2023-04-28T09:59:55.532Z,560.00
2023-04-28T10:00:55.585Z,559.00
2023-04-28T10:01:55.477Z,561.00
2023-04-28T10:02:55.581Z,566.00
2023-04-28T10:03:55.537Z,566.00
2023-04-28T10:04:55.532Z,563.00
2023-04-28T10:05:55.362Z,566.00
2023-04-28T10:06:55.352Z,563.00
2023-04-28T10:07:55.316Z,562.00
2023-04-28T10:08:55.454Z,559.00
2023-04-28T10:09:55.281Z,556.00
2023-04-28T10:10:55.244Z,555.00
2023-04-28T10:11:55.215Z,552.00
2023-04-28T10:12:55.180Z,549.00
2023-04-28T10:13:55.457Z,545.00
2023-04-28T10:14:55.153Z,543.00
2023-04-28T10:15:55.684Z,543.00
2023-04-28T10:16:55.127Z,541.00
2023-04-28T10:17:55.277Z,539.00
2023-04-28T10:18:55.453Z,540.00
2023-04-28T10:19:55.022Z,538.00
2023-04-28T10:20:54.995Z,537.00
2023-04-28T10:21:54.974Z,535.00
2023-04-28T10:22:56.187Z,536.00
2023-04-28T10:23:54.954Z,534.00
2023-04-28T10:24:54.921Z,535.00
2023-04-28T10:25:54.886Z,535.00
2023-04-28T10:26:54.899Z,535.00
2023-04-28T10:27:55.027Z,533.00
2023-04-28T10:28:54.954Z,531.00
2023-04-28T10:29:54.810Z,531.00
2023-04-28T10:30:55.050Z,530.00
2023-04-28T10:31:54.749Z,528.00
2023-04-28T10:32:54.871Z,529.00
2023-04-28T10:33:55.034Z,526.00
2023-04-28T10:34:54.729Z,523.00
2023-04-28T10:35:54.674Z,523.00
2023-04-28T10:36:54.708Z,522.00
2023-04-28T10:37:54.988Z,522.00
2023-04-28T10:38:54.691Z,523.00
2023-04-28T10:39:54.712Z,523.00
2023-04-28T10:40:54.966Z,523.00
2023-04-28T10:41:54.725Z,526.00
2023-04-28T10:42:54.708Z,524.00
2023-04-28T10:43:54.718Z,522.00
2023-04-28T10:44:54.715Z,519.00
2023-04-28T10:45:56.536Z,518.00
2023-04-28T10:46:55.021Z,514.00
2023-04-28T10:47:54.713Z,512.00
2023-04-28T10:48:55.028Z,510.00
2023-04-28T10:49:54.623Z,512.00
2023-04-28T10:50:54.602Z,513.00
2023-04-28T10:51:54.574Z,514.00
2023-04-28T10:52:54.558Z,516.00
2023-04-28T10:53:54.976Z,516.00
2023-04-28T10:54:54.530Z,516.00
2023-04-28T10:55:54.998Z,516.00
2023-04-28T10:56:54.469Z,518.00
2023-04-28T10:57:54.494Z,519.00
2023-04-28T10:58:55.267Z,521.00
2023-04-28T10:59:54.418Z,522.00
2023-04-28T11:00:54.400Z,518.00
2023-04-28T11:01:54.405Z,517.00
2023-04-28T11:02:54.503Z,521.00
2023-04-28T11:03:54.993Z,520.00
2023-04-28T11:04:54.625Z,520.00
2023-04-28T11:05:54.290Z,520.00
2023-04-28T11:06:54.266Z,520.00
2023-04-28T11:07:54.247Z,520.00
2023-04-28T11:08:54.219Z,519.00
2023-04-28T11:09:54.575Z,519.00
2023-04-28T11:10:54.197Z,520.00
2023-04-28T11:11:54.474Z,523.00
2023-04-28T11:12:54.137Z,521.00
2023-04-28T11:13:54.107Z,520.00
2023-04-28T11:14:54.075Z,521.00
2023-04-28T11:15:54.072Z,528.00
2023-04-28T11:16:54.546Z,533.00
2023-04-28T11:17:54.210Z,541.00
2023-04-28T11:18:55.707Z,548.00
2023-04-28T11:19:53.999Z,550.00
2023-04-28T11:20:53.963Z,551.00
2023-04-28T11:21:53.917Z,554.00
2023-04-28T11:22:53.888Z,557.00
2023-04-28T11:23:53.995Z,560.00
2023-04-28T11:24:54.102Z,563.00
2023-04-28T11:25:53.831Z,567.00
2023-04-28T11:26:53.877Z,572.00
2023-04-28T11:27:53.780Z,574.00
2023-04-28T11:28:54.003Z,576.00
2023-04-28T11:29:53.737Z,576.00
2023-04-28T11:30:54.253Z,574.00
2023-04-28T11:31:53.806Z,577.00
2023-04-28T11:32:53.730Z,579.00
2023-04-28T11:33:53.650Z,586.00
2023-04-28T11:34:53.609Z,587.00
2023-04-28T11:35:53.584Z,590.00
2023-04-28T11:36:54.904Z,589.00
2023-04-28T11:37:53.580Z,590.00
2023-04-28T11:38:53.996Z,595.00
2023-04-28T11:39:53.567Z,597.00
2023-04-28T11:40:53.560Z,598.00
2023-04-28T11:41:53.559Z,600.00
2023-04-28T11:42:54.465Z,603.00
2023-04-28T11:43:53.584Z,602.00
2023-04-28T11:44:53.941Z,602.00
2023-04-28T11:45:53.631Z,607.00
2023-04-28T11:46:53.567Z,609.00
2023-04-28T11:47:53.628Z,613.00
2023-04-28T11:48:53.568Z,614.00
2023-04-28T11:49:53.544Z,615.00
2023-04-28T11:50:53.531Z,615.00
2023-04-28T11:51:53.518Z,616.00
2023-04-28T11:52:54.019Z,618.00
2023-04-28T11:53:53.506Z,620.00
2023-04-28T11:54:53.473Z,619.00
2023-04-28T11:55:53.456Z,618.00
2023-04-28T11:56:53.475Z,620.00
2023-04-28T11:57:53.445Z,622.00
2023-04-28T11:58:53.453Z,623.00
2023-04-28T11:59:53.417Z,624.00
2023-04-28T12:00:53.413Z,625.00
2023-04-28T12:01:53.446Z,625.00
2023-04-28T12:02:53.495Z,624.00
2023-04-28T12:03:53.519Z,626.00
2023-04-28T12:04:53.368Z,628.00
2023-04-28T12:05:53.364Z,625.00
2023-04-28T12:06:53.333Z,622.00
2023-04-28T12:07:53.315Z,623.00
2023-04-28T12:08:53.534Z,624.00
2023-04-28T12:09:53.284Z,622.00
2023-04-28T12:10:53.278Z,624.00
2023-04-28T12:11:53.254Z,625.00
2023-04-28T12:12:53.620Z,624.00
2023-04-28T12:13:53.302Z,622.00
2023-04-28T12:14:53.198Z,619.00
2023-04-28T12:15:53.224Z,619.00
2023-04-28T12:16:53.189Z,621.00
2023-04-28T12:17:53.240Z,620.00
2023-04-28T12:18:53.142Z,618.00
2023-04-28T12:19:53.130Z,614.00
2023-04-28T12:20:53.117Z,613.00
2023-04-28T12:21:53.143Z,613.00
2023-04-28T12:22:53.101Z,613.00
2023-04-28T12:23:53.509Z,611.00
2023-04-28T12:24:53.099Z,610.00
2023-04-28T12:25:53.068Z,607.00
2023-04-28T12:26:53.056Z,604.00